createdAt,value
2023-04-22T00:01:56.064Z,25.9
2023-04-22T00:07:49.914Z,25.5
2023-04-22T00:13:41.316Z,25.3
2023-04-22T00:19:34.312Z,25.1
2023-04-22T00:25:26.038Z,24.9
2023-04-22T00:31:17.807Z,26.7
2023-04-22T00:37:10.467Z,29.6
2023-04-22T00:42:46.118Z,26.2
2023-04-22T00:48:38.726Z,25.6
2023-04-22T00:54:30.518Z,25.4
2023-04-22T01:00:06.472Z,25.2
2023-04-22T01:05:44.626Z,24.9
2023-04-22T01:11:21.626Z,24.8
2023-04-22T01:17:16.224Z,28.1
2023-04-22T01:23:08.250Z,27.6
2023-04-22T01:28:59.766Z,25.9
2023-04-22T01:34:52.093Z,25.5
2023-04-22T01:40:43.920Z,25.3
2023-04-22T01:46:35.364Z,25.1
2023-04-22T01:52:11.702Z,24.9
2023-04-22T01:57:48.282Z,25.6
2023-04-22T02:03:40.860Z,29.4
2023-04-22T02:09:32.774Z,26.4
2023-04-22T02:15:24.356Z,25.6
2023-04-22T02:21:17.126Z,25.4
2023-04-22T02:27:08.561Z,25.2
2023-04-22T02:32:59.875Z,24.9
2023-04-22T02:38:51.438Z,24.8
2023-04-22T02:44:43.040Z,28.2
2023-04-22T02:50:34.130Z,27.4
2023-04-22T02:56:10.672Z,25.9
2023-04-22T03:02:04.457Z,25.5
2023-04-22T03:07:59.125Z,25.3
2023-04-22T03:13:51.068Z,25.1
2023-04-22T03:19:43.524Z,24.9
2023-04-22T03:25:35.233Z,24.8
2023-04-22T03:31:26.494Z,29.1
2023-04-22T03:37:21.181Z,26.5
2023-04-22T03:43:13.686Z,25.6
2023-04-22T03:49:08.275Z,25.4
2023-04-22T03:55:00.272Z,25.2
2023-04-22T04:00:52.011Z,25
2023-04-22T04:06:34.409Z,24.7
2023-04-22T04:12:25.846Z,27.5
2023-04-22T04:18:18.111Z,28.1
2023-04-22T04:24:12.277Z,26
2023-04-22T04:29:48.551Z,24.4
2023-04-22T04:35:40.848Z,23.9
2023-04-22T04:41:32.930Z,23.8
2023-04-22T04:47:10.832Z,23.7
2023-04-22T04:53:01.909Z,23.5
2023-04-22T04:58:53.820Z,28.1
2023-04-22T05:04:47.476Z,27
2023-04-22T05:10:39.204Z,25.6
2023-04-22T05:16:30.849Z,25.3
2023-04-22T05:22:22.442Z,25.1
2023-04-22T05:28:13.885Z,24.8
2023-04-22T05:33:51.188Z,24.6
2023-04-22T05:39:42.890Z,28.4
2023-04-22T05:45:36.593Z,27.2
2023-04-22T05:51:29.125Z,26.1
2023-04-22T05:57:20.006Z,25.7
2023-04-22T06:03:13.188Z,25.5
2023-04-22T06:08:52.425Z,25.3
2023-04-22T06:14:49.959Z,24.9
2023-04-22T06:20:44.072Z,26.1
2023-04-22T06:26:20.347Z,29.8
2023-04-22T06:32:12.306Z,26.6
2023-04-22T06:38:03.591Z,26
2023-04-22T06:43:55.301Z,25.7
2023-04-22T06:49:47.032Z,25.4
2023-04-22T06:55:41.189Z,25.1
2023-04-22T07:01:33.753Z,24.9
2023-04-22T07:07:11.446Z,26.7
2023-04-22T07:12:47.736Z,29.1
2023-04-22T07:18:39.736Z,26.4
2023-04-22T07:24:31.853Z,25.9
2023-04-22T07:30:23.242Z,25.6
2023-04-22T07:35:59.789Z,25.4
2023-04-22T07:41:51.475Z,25.1
2023-04-22T07:47:43.200Z,27.2
2023-04-22T07:53:37.752Z,28.6
2023-04-22T07:59:14.330Z,26.2
2023-04-22T08:05:09.804Z,25.8
2023-04-22T08:11:18.109Z,25.5
2023-04-22T08:17:10.060Z,25.3
2023-04-22T08:23:01.751Z,25
2023-04-22T08:28:52.888Z,29.8
2023-04-22T08:34:32.731Z,26.7
2023-04-22T08:40:29.834Z,25.8
2023-04-22T08:46:25.406Z,25.4
2023-04-22T08:52:19.536Z,25.2
2023-04-22T08:57:55.912Z,25
2023-04-22T09:03:48.762Z,27.6
2023-04-22T09:09:25.507Z,28.4
2023-04-22T09:15:18.530Z,26.1
2023-04-22T09:21:10.399Z,25.5
2023-04-22T09:27:02.048Z,25.3
2023-04-22T09:32:54.181Z,25
2023-04-22T09:38:54.921Z,24.5
2023-04-22T09:44:46.661Z,30.1
2023-04-22T09:50:38.947Z,26.1
2023-04-22T09:56:30.094Z,25.4
2023-04-22T10:02:21.337Z,25.2
2023-04-22T10:08:12.918Z,24.9
2023-04-22T10:14:13.748Z,24.8
2023-04-22T10:20:05.732Z,24.5
2023-04-22T10:25:41.205Z,24.3
2023-04-22T10:31:17.713Z,24
2023-04-22T10:37:12.638Z,23.8
2023-04-22T10:43:06.732Z,23.6
2023-04-22T10:48:59.106Z,23.4
2023-04-22T10:54:35.302Z,23.2
2023-04-22T11:00:38.540Z,23.1
2023-04-22T11:06:23.191Z,22.8
2023-04-22T11:11:59.040Z,22.7
2023-04-22T11:17:51.444Z,22.5
2023-04-22T11:23:45.985Z,22.3
2023-04-22T11:29:38.031Z,22.2
2023-04-22T11:35:15.190Z,22
2023-04-22T11:41:36.020Z,21.9
2023-04-22T11:47:28.496Z,21.8
2023-04-22T11:53:19.835Z,21.6
2023-04-22T11:59:11.777Z,21.5
2023-04-22T12:04:50.695Z,21.4
2023-04-22T12:10:42.410Z,21.3
2023-04-22T12:16:36.264Z,21.2
2023-04-22T12:22:28.170Z,21.1
2023-04-22T12:28:21.692Z,21
2023-04-22T12:34:13.524Z,20.9
2023-04-22T12:40:05.302Z,20.9
2023-04-22T12:45:57.707Z,20.8
2023-04-22T12:51:50.449Z,20.8
2023-04-22T12:57:42.104Z,20.8
2023-04-22T13:03:35.094Z,20.8
2023-04-22T13:09:38.853Z,20.7
2023-04-22T13:15:43.872Z,20.7
2023-04-22T13:21:38.463Z,20.7
2023-04-22T13:27:14.917Z,20.6
2023-04-22T13:33:10.534Z,20.6
2023-04-22T13:39:02.462Z,20.6
2023-04-22T13:44:54.571Z,20.6
2023-04-22T13:50:47.355Z,20.5
2023-04-22T13:56:39.609Z,20.5
2023-04-22T14:02:16.458Z,20.5
2023-04-22T14:07:54.305Z,20.5
2023-04-22T14:13:46.095Z,20.4
2023-04-22T14:19:24.496Z,20.4
2023-04-22T14:25:02.530Z,20.4
2023-04-22T14:30:53.745Z,20.4
2023-04-22T14:36:47.799Z,20.4
2023-04-22T14:42:41.291Z,20.4
2023-04-22T14:48:35.430Z,20.4
2023-04-22T14:54:27.387Z,20.4
2023-04-22T15:00:28.051Z,20.4
2023-04-22T15:06:19.957Z,20.3
2023-04-22T15:12:11.481Z,20.3
2023-04-22T15:18:03.260Z,20.3
2023-04-22T15:23:56.915Z,20.3
2023-04-22T15:29:48.688Z,20.3
2023-04-22T15:35:42.112Z,20.3
2023-04-22T15:41:33.980Z,20.3
2023-04-22T15:47:26.955Z,20.3
2023-04-22T15:53:03.022Z,20.3
2023-04-22T15:58:53.841Z,20.3
2023-04-22T16:05:09.677Z,20.3
2023-04-22T16:11:01.406Z,20.3
2023-04-22T16:16:52.914Z,20.3
2023-04-22T16:22:44.345Z,20.3
2023-04-22T16:28:35.402Z,20.3
2023-04-22T16:34:11.876Z,20.3
2023-04-22T16:39:47.603Z,20.3
2023-04-22T16:45:23.718Z,20.2
2023-04-22T16:51:15.069Z,20.2
2023-04-22T16:57:06.427Z,20.2
2023-04-22T17:03:00.153Z,20.1
2023-04-22T17:08:52.751Z,20.1
2023-04-22T17:14:44.750Z,20.1
2023-04-22T17:20:36.249Z,20.1
2023-04-22T17:26:27.128Z,20.1
2023-04-22T17:32:02.975Z,20
2023-04-22T17:37:55.990Z,20
2023-04-22T17:44:00.663Z,20.1
2023-04-22T17:49:52.023Z,20.1
2023-04-22T17:55:43.480Z,20.1
2023-04-22T18:01:34.888Z,20.1
2023-04-22T18:07:27.785Z,20.1
2023-04-22T18:13:19.846Z,20.1
2023-04-22T18:18:56.959Z,20.1
2023-04-22T18:25:16.525Z,20.1
2023-04-22T18:31:07.632Z,20.1
2023-04-22T18:36:43.937Z,20.1
2023-04-22T18:42:35.275Z,20.1
2023-04-22T18:48:11.438Z,20.1
2023-04-22T18:54:02.101Z,20.1
2023-04-22T18:59:39.538Z,20.1
2023-04-22T19:05:17.578Z,20.1
2023-04-22T19:11:08.897Z,20.1
2023-04-22T19:17:01.474Z,20.1
2023-04-22T19:22:37.573Z,20.1
2023-04-22T19:28:14.532Z,20.1
2023-04-22T19:33:51.764Z,20.1
2023-04-22T19:39:43.225Z,20.1
2023-04-22T19:45:05.388Z,20.1
2023-04-22T19:50:57.403Z,20
2023-04-22T19:56:48.485Z,20
2023-04-22T20:02:41.150Z,20.1
2023-04-22T20:08:34.268Z,20
2023-04-22T20:14:25.606Z,20
2023-04-22T20:20:17.670Z,20.1
2023-04-22T20:26:10.026Z,20
2023-04-22T20:32:01.807Z,20
2023-04-22T20:37:53.301Z,20
2023-04-22T20:43:44.472Z,20
2023-04-22T20:49:39.835Z,20
2023-04-22T20:55:43.426Z,24.8
2023-04-22T21:01:34.499Z,29.4
2023-04-22T21:07:28.035Z,27
2023-04-22T21:13:19.911Z,25.5
2023-04-22T21:19:12.903Z,25.2
2023-04-22T21:25:03.929Z,24.6
2023-04-22T21:30:55.956Z,29.4
2023-04-22T21:37:02.292Z,26.9
2023-04-22T21:42:53.491Z,25.6
2023-04-22T21:48:29.541Z,25.3
2023-04-22T21:54:20.837Z,25.1
2023-04-22T21:59:56.984Z,24.5
2023-04-22T22:05:37.167Z,29.4
2023-04-22T22:11:40.375Z,26.9
2023-04-22T22:17:33.616Z,25.6
2023-04-22T22:23:24.535Z,25.3
2023-04-22T22:29:17.053Z,25.1
2023-04-22T22:35:09.127Z,24.9
2023-04-22T22:41:00.991Z,27.4
2023-04-22T22:46:53.890Z,29.2
2023-04-22T22:52:45.901Z,25.8
2023-04-22T22:58:36.936Z,25.1
2023-04-22T23:04:31.206Z,24.8
2023-04-22T23:10:07.354Z,24.6
2023-04-22T23:15:58.664Z,24.5
2023-04-22T23:21:50.424Z,27.3
2023-04-22T23:27:41.519Z,29.1
2023-04-22T23:33:32.270Z,26.1
2023-04-22T23:39:24.526Z,25.5
2023-04-22T23:45:16.292Z,25.3
2023-04-22T23:50:53.088Z,25.1
2023-04-22T23:56:45.001Z,24.9
